createdAt,value
2023-03-21T00:00:57.809Z,9.68
2023-03-21T00:03:27.077Z,9.69
2023-03-21T00:05:55.598Z,9.69
2023-03-21T00:08:26.315Z,9.68
2023-03-21T00:11:00.648Z,9.68
2023-03-21T00:13:33.015Z,9.67
2023-03-21T00:16:20.642Z,9.67
2023-03-21T00:18:54.379Z,9.67
2023-03-21T00:24:16.959Z,9.62
2023-03-21T00:26:46.242Z,9.61
2023-03-21T00:29:14.681Z,9.59
2023-03-21T00:31:43.018Z,9.57
2023-03-21T00:36:41.378Z,9.51
2023-03-21T00:39:09.778Z,9.48
2023-03-21T00:41:42.897Z,9.44
2023-03-21T00:44:15.946Z,9.42
2023-03-21T00:46:57.353Z,9.41
2023-03-21T00:49:38.652Z,9.39
2023-03-21T00:52:18.577Z,9.39
2023-03-21T00:54:53.037Z,9.38
2023-03-21T00:57:29.256Z,9.39
2023-03-21T01:00:08.054Z,9.39
2023-03-21T01:02:38.149Z,9.38
2023-03-21T01:05:07.238Z,9.38
2023-03-21T01:07:35.728Z,9.40
2023-03-21T01:10:04.471Z,9.40
2023-03-21T01:12:32.844Z,9.43
2023-03-21T01:15:01.200Z,9.44
2023-03-21T01:17:29.638Z,9.44
2023-03-21T01:19:57.994Z,9.46
2023-03-21T01:22:26.523Z,9.47
2023-03-21T01:25:00.619Z,9.47
2023-03-21T01:27:34.292Z,9.47
2023-03-21T01:30:08.664Z,9.47
2023-03-21T01:32:39.790Z,9.47
2023-03-21T01:35:08.841Z,9.48
2023-03-21T01:37:37.295Z,9.49
2023-03-21T01:40:06.779Z,9.51
2023-03-21T01:42:35.111Z,9.52
2023-03-21T01:45:27.222Z,9.53
2023-03-21T01:47:55.725Z,9.56
2023-03-21T01:50:27.892Z,9.59
2023-03-21T01:53:22.595Z,9.62
2023-03-21T01:55:51.239Z,9.63
2023-03-21T01:58:30.419Z,9.64
2023-03-21T02:01:23.173Z,9.63
2023-03-21T02:03:52.745Z,9.61
2023-03-21T02:06:44.077Z,9.58
2023-03-21T02:09:33.782Z,9.54
2023-03-21T02:12:02.671Z,9.50
2023-03-21T02:14:35.242Z,9.48
2023-03-21T02:17:20.092Z,9.46
2023-03-21T02:20:30.567Z,9.45
2023-03-21T02:23:50.021Z,9.43
2023-03-21T02:26:41.250Z,9.40
2023-03-21T02:29:40.368Z,9.37
2023-03-21T02:32:36.534Z,9.36
2023-03-21T02:35:23.537Z,9.36
2023-03-21T02:38:04.801Z,9.35
2023-03-21T02:40:42.809Z,9.34
2023-03-21T02:43:23.432Z,9.31
2023-03-21T02:46:00.662Z,9.28
2023-03-21T02:48:50.194Z,9.26
2023-03-21T02:51:23.325Z,9.23
2023-03-21T02:54:23.766Z,9.22
2023-03-21T02:56:50.705Z,9.19
2023-03-21T02:59:21.637Z,9.15
2023-03-21T03:01:55.387Z,9.11
2023-03-21T03:04:29.190Z,9.07
2023-03-21T03:07:01.280Z,9.04
2023-03-21T03:09:59.649Z,9.01
2023-03-21T03:12:59.810Z,9.00
2023-03-21T03:15:45.977Z,9.00
2023-03-21T03:18:26.748Z,8.99
2023-03-21T03:21:20.778Z,8.99
2023-03-21T03:24:04.455Z,8.99
2023-03-21T03:26:43.769Z,8.98
2023-03-21T03:29:17.661Z,9.01
2023-03-21T03:32:01.901Z,9.04
2023-03-21T03:34:40.657Z,9.06
2023-03-21T03:37:14.747Z,9.09
2023-03-21T03:39:53.999Z,9.11
2023-03-21T03:42:32.243Z,9.14
2023-03-21T03:45:18.823Z,9.17
2023-03-21T03:48:05.945Z,9.19
2023-03-21T03:50:55.622Z,9.22
2023-03-21T03:53:37.233Z,9.23
2023-03-21T03:56:10.005Z,9.25
2023-03-21T03:58:45.546Z,9.27
2023-03-21T04:01:16.377Z,9.27
2023-03-21T04:03:53.014Z,9.27
2023-03-21T04:06:25.040Z,9.23
2023-03-21T04:08:53.919Z,9.21
2023-03-21T04:11:23.206Z,9.18
2023-03-21T04:13:54.023Z,9.16
2023-03-21T04:16:24.523Z,9.14
2023-03-21T04:18:53.185Z,9.13
2023-03-21T04:21:22.261Z,9.10
2023-03-21T04:23:50.636Z,9.07
2023-03-21T04:26:24.709Z,9.05
2023-03-21T04:29:16.123Z,8.99
2023-03-21T04:32:04.005Z,8.95
2023-03-21T04:34:32.996Z,8.93
2023-03-21T04:37:11.219Z,8.91
2023-03-21T04:39:40.699Z,8.89
2023-03-21T04:42:09.757Z,8.88
2023-03-21T04:44:38.214Z,8.86
2023-03-21T04:47:07.145Z,8.86
2023-03-21T04:49:35.663Z,8.85
2023-03-21T04:52:05.109Z,8.86
2023-03-21T04:54:33.612Z,8.87
2023-03-21T04:57:02.002Z,8.85
2023-03-21T04:59:31.016Z,8.86
2023-03-21T05:01:59.957Z,8.86
2023-03-21T05:04:28.820Z,8.86
2023-03-21T05:06:58.257Z,8.85
2023-03-21T05:09:28.040Z,8.84
2023-03-21T05:11:56.920Z,8.82
2023-03-21T05:14:27.429Z,8.79
2023-03-21T05:16:59.383Z,8.77
2023-03-21T05:19:35.714Z,8.77
2023-03-21T05:22:07.750Z,8.76
2023-03-21T05:24:42.162Z,8.75
2023-03-21T05:27:35.006Z,8.74
2023-03-21T05:30:09.880Z,8.75
2023-03-21T05:32:38.774Z,8.75
2023-03-21T05:35:10.319Z,8.77
2023-03-21T05:37:39.245Z,8.78
2023-03-21T05:40:09.914Z,8.80
2023-03-21T05:42:39.943Z,8.85
2023-03-21T05:45:21.626Z,8.87
2023-03-21T05:47:50.620Z,8.90
2023-03-21T05:50:19.481Z,8.93
2023-03-21T05:52:55.077Z,8.97
2023-03-21T05:55:23.809Z,9.02
2023-03-21T05:57:52.717Z,9.06
2023-03-21T06:00:28.312Z,9.11
2023-03-21T06:03:19.718Z,9.16
2023-03-21T06:06:05.793Z,9.20
2023-03-21T06:08:37.538Z,9.27
2023-03-21T06:11:19.701Z,9.34
2023-03-21T06:13:48.504Z,9.43
2023-03-21T06:16:17.321Z,9.50
2023-03-21T06:18:45.925Z,9.58
2023-03-21T06:21:20.959Z,9.65
2023-03-21T06:23:51.967Z,9.72
2023-03-21T06:26:23.140Z,9.78
2023-03-21T06:28:52.810Z,9.82
2023-03-21T06:31:22.918Z,9.88
2023-03-21T06:33:52.699Z,9.93
2023-03-21T06:36:21.162Z,9.99
2023-03-21T06:38:50.412Z,10.06
2023-03-21T06:41:19.332Z,10.12
2023-03-21T06:43:55.682Z,10.17
2023-03-21T06:46:24.263Z,10.23
2023-03-21T06:48:52.766Z,10.32
2023-03-21T06:51:21.633Z,10.41
2023-03-21T06:54:04.381Z,10.49
2023-03-21T06:56:48.816Z,10.58
2023-03-21T06:59:22.770Z,10.69
2023-03-21T07:01:57.524Z,10.84
2023-03-21T07:04:27.252Z,10.98
2023-03-21T07:06:56.718Z,11.14
2023-03-21T07:09:28.395Z,11.29
2023-03-21T07:11:59.385Z,11.44
2023-03-21T07:14:34.867Z,11.55
2023-03-21T07:17:03.367Z,11.64
2023-03-21T07:19:32.272Z,11.78
2023-03-21T07:22:01.737Z,11.92
2023-03-21T07:24:30.531Z,12.04
2023-03-21T07:26:58.873Z,12.17
2023-03-21T07:29:27.342Z,12.42
2023-03-21T07:31:55.885Z,12.77
2023-03-21T07:34:24.416Z,13.16
2023-03-21T07:36:52.908Z,13.50
2023-03-21T07:39:21.378Z,13.83
2023-03-21T07:41:49.785Z,14.10
2023-03-21T07:44:31.200Z,14.36
2023-03-21T07:47:06.393Z,14.59
2023-03-21T07:49:34.930Z,14.76
2023-03-21T07:52:04.859Z,14.98
2023-03-21T07:54:33.900Z,15.25
2023-03-21T07:57:02.280Z,15.50
2023-03-21T07:59:31.275Z,15.78
2023-03-21T08:01:59.616Z,16.11
2023-03-21T08:04:28.208Z,16.44
2023-03-21T08:06:57.687Z,16.72
2023-03-21T08:09:26.050Z,16.94
2023-03-21T08:11:54.446Z,16.99
2023-03-21T08:14:22.917Z,16.93
2023-03-21T08:16:51.493Z,16.94
2023-03-21T08:19:22.000Z,17.04
2023-03-21T08:21:52.230Z,17.12
2023-03-21T08:24:20.749Z,17.28
2023-03-21T08:26:49.248Z,17.43
2023-03-21T08:29:18.152Z,17.59
2023-03-21T08:31:46.518Z,17.61
2023-03-21T08:34:15.559Z,17.59
2023-03-21T08:36:44.280Z,17.61
2023-03-21T08:39:12.743Z,17.71
2023-03-21T08:41:41.139Z,17.72
2023-03-21T08:44:11.067Z,17.68
2023-03-21T08:46:39.492Z,17.67
2023-03-21T08:49:07.836Z,17.67
2023-03-21T08:51:37.939Z,17.70
2023-03-21T08:54:06.848Z,17.73
2023-03-21T08:56:37.342Z,17.75
2023-03-21T08:59:05.970Z,17.74
2023-03-21T09:01:34.276Z,17.79
2023-03-21T09:04:03.023Z,17.85
2023-03-21T09:06:33.636Z,17.92
2023-03-21T09:09:01.927Z,17.95
2023-03-21T09:11:30.550Z,17.86
2023-03-21T09:13:59.004Z,17.84
2023-03-21T09:16:27.381Z,17.87
2023-03-21T09:18:57.320Z,17.88
2023-03-21T09:21:28.107Z,17.91
2023-03-21T09:23:59.036Z,17.89
2023-03-21T09:26:28.266Z,17.81
2023-03-21T09:28:57.102Z,17.77
2023-03-21T09:31:26.143Z,17.67
2023-03-21T09:33:58.546Z,17.68
2023-03-21T09:36:27.375Z,17.78
2023-03-21T09:38:57.230Z,17.88
2023-03-21T09:41:55.791Z,18.02
2023-03-21T09:44:39.268Z,18.16
2023-03-21T09:47:29.476Z,18.30
2023-03-21T09:50:22.172Z,18.46
2023-03-21T09:53:01.960Z,18.78
2023-03-21T09:55:35.275Z,18.98
2023-03-21T09:58:32.061Z,19.17
2023-03-21T10:01:22.469Z,19.12
2023-03-21T10:03:50.953Z,18.79
2023-03-21T10:06:19.622Z,18.49
2023-03-21T10:08:49.206Z,18.33
2023-03-21T10:11:52.469Z,18.18
2023-03-21T10:14:38.891Z,18.22
2023-03-21T10:17:07.272Z,18.52
2023-03-21T10:19:35.748Z,18.61
2023-03-21T10:22:04.509Z,18.44
2023-03-21T10:24:34.983Z,18.18
2023-03-21T10:27:05.610Z,18.03
2023-03-21T10:29:45.268Z,17.89
2023-03-21T10:32:17.610Z,17.80
2023-03-21T10:34:51.261Z,17.93
2023-03-21T10:37:19.982Z,18.08
2023-03-21T10:39:51.857Z,18.13
2023-03-21T10:42:29.807Z,18.14
2023-03-21T10:44:58.954Z,18.16
2023-03-21T10:47:34.177Z,18.22
2023-03-21T10:50:10.251Z,18.23
2023-03-21T10:52:50.923Z,18.25
2023-03-21T10:55:29.031Z,18.19
2023-03-21T10:58:02.763Z,18.03
2023-03-21T11:00:37.387Z,17.83
2023-03-21T11:03:07.486Z,17.73
2023-03-21T11:05:40.111Z,17.62
2023-03-21T11:08:16.262Z,17.40
2023-03-21T11:10:55.601Z,17.16
2023-03-21T11:13:26.919Z,16.96
2023-03-21T11:16:05.483Z,16.75
2023-03-21T11:18:39.684Z,16.61
2023-03-21T11:21:11.977Z,16.49
2023-03-21T11:23:48.252Z,16.38
2023-03-21T11:26:30.398Z,16.32
2023-03-21T11:28:59.551Z,16.26
2023-03-21T11:31:41.829Z,16.20
2023-03-21T11:34:21.485Z,16.06
2023-03-21T11:36:51.681Z,15.93
2023-03-21T11:39:37.392Z,15.76
2023-03-21T11:42:26.153Z,15.60
2023-03-21T11:45:12.791Z,15.46
2023-03-21T11:47:41.870Z,15.54
2023-03-21T11:50:22.886Z,15.92
2023-03-21T11:53:42.955Z,16.46
2023-03-21T11:56:34.613Z,17.06
2023-03-21T11:59:18.214Z,17.52
2023-03-21T12:02:22.950Z,18.09
2023-03-21T12:05:25.832Z,18.57
2023-03-21T12:07:57.241Z,18.86
2023-03-21T12:10:32.789Z,19.05
2023-03-21T12:13:19.675Z,19.11
2023-03-21T12:16:06.869Z,19.10
2023-03-21T12:18:56.622Z,18.98
2023-03-21T12:21:40.460Z,18.78
2023-03-21T12:24:29.842Z,18.57
2023-03-21T12:27:37.217Z,18.32
2023-03-21T12:30:24.475Z,18.07
2023-03-21T12:33:14.620Z,17.84
2023-03-21T12:35:44.815Z,17.50
2023-03-21T12:38:28.413Z,17.15
2023-03-21T12:41:33.826Z,16.85
2023-03-21T12:44:20.516Z,16.56
2023-03-21T12:46:59.464Z,16.26
2023-03-21T12:49:48.720Z,15.80
2023-03-21T12:52:21.852Z,15.36
2023-03-21T12:55:21.757Z,14.94
2023-03-21T12:57:58.734Z,14.40
2023-03-21T13:00:48.832Z,14.08
2023-03-21T13:03:30.562Z,13.78
2023-03-21T13:06:18.473Z,13.48
2023-03-21T13:08:53.728Z,13.23
2023-03-21T13:11:30.875Z,13.01
2023-03-21T13:14:28.313Z,12.71
2023-03-21T13:17:06.842Z,12.35
2023-03-21T13:19:50.330Z,12.09
2023-03-21T13:22:31.691Z,11.86
2023-03-21T13:25:07.772Z,11.60
2023-03-21T13:27:42.675Z,11.37
2023-03-21T13:30:20.549Z,11.08
2023-03-21T13:32:51.332Z,10.83
2023-03-21T13:35:29.544Z,10.62
2023-03-21T13:38:20.214Z,10.47
2023-03-21T13:40:58.666Z,10.51
2023-03-21T13:43:30.021Z,10.71
2023-03-21T13:46:15.928Z,10.95
2023-03-21T13:48:58.779Z,11.29
2023-03-21T13:51:36.998Z,11.56
2023-03-21T13:54:30.247Z,11.75
2023-03-21T13:57:01.614Z,11.92
2023-03-21T13:59:38.696Z,12.00
2023-03-21T14:02:33.398Z,12.01
2023-03-21T14:05:20.774Z,12.01
2023-03-21T14:07:59.318Z,11.98
2023-03-21T14:10:38.858Z,12.00
2023-03-21T14:13:10.909Z,12.19
2023-03-21T14:15:56.300Z,12.45
2023-03-21T14:18:51.775Z,12.75
2023-03-21T14:21:24.898Z,12.95
2023-03-21T14:24:05.375Z,13.10
2023-03-21T14:26:37.000Z,13.25
2023-03-21T14:29:22.924Z,13.36
2023-03-21T14:31:56.476Z,13.43
2023-03-21T14:34:27.829Z,13.49
2023-03-21T14:36:58.640Z,13.55
2023-03-21T14:39:32.767Z,13.64
2023-03-21T14:42:13.944Z,13.70
2023-03-21T14:44:55.359Z,13.73
2023-03-21T14:47:29.482Z,13.76
2023-03-21T14:50:01.231Z,13.70
2023-03-21T14:52:35.617Z,13.54
2023-03-21T14:55:15.683Z,13.37
2023-03-21T14:57:44.512Z,13.23
2023-03-21T15:00:23.117Z,13.14
2023-03-21T15:02:52.935Z,13.02
2023-03-21T15:05:37.823Z,12.89
2023-03-21T15:08:12.647Z,12.81
2023-03-21T15:10:41.857Z,12.75
2023-03-21T15:13:20.062Z,12.65
2023-03-21T15:15:49.198Z,12.53
2023-03-21T15:18:35.053Z,12.44
2023-03-21T15:21:11.173Z,12.37
2023-03-21T15:23:46.044Z,12.33
2023-03-21T15:26:22.309Z,12.23
2023-03-21T15:28:56.266Z,12.18
2023-03-21T15:31:29.948Z,12.11
2023-03-21T15:33:58.440Z,12.02
2023-03-21T15:36:38.071Z,11.95
2023-03-21T15:39:12.884Z,11.91
2023-03-21T15:41:43.229Z,11.88
2023-03-21T15:44:15.152Z,11.82
2023-03-21T15:46:48.569Z,11.72
2023-03-21T15:49:16.981Z,11.60
2023-03-21T15:51:51.643Z,11.43
2023-03-21T15:54:29.849Z,11.29
2023-03-21T15:57:05.053Z,11.17
2023-03-21T15:59:39.195Z,11.07
2023-03-21T16:02:21.178Z,10.95
2023-03-21T16:05:00.326Z,10.86
2023-03-21T16:07:35.555Z,10.76
2023-03-21T16:10:04.822Z,10.67
2023-03-21T16:12:37.334Z,10.61
2023-03-21T16:15:06.895Z,10.53
2023-03-21T16:17:41.328Z,10.50
2023-03-21T16:20:22.199Z,10.48
2023-03-21T16:22:50.802Z,10.46
2023-03-21T16:25:19.518Z,10.43
2023-03-21T16:27:51.633Z,10.41
2023-03-21T16:30:22.628Z,10.37
2023-03-21T16:32:51.806Z,10.35
2023-03-21T16:35:23.346Z,10.33
2023-03-21T16:37:52.060Z,10.32
2023-03-21T16:40:31.664Z,10.30
2023-03-21T16:43:01.117Z,10.29
2023-03-21T16:45:30.706Z,10.28
2023-03-21T16:47:59.970Z,10.27
2023-03-21T16:50:39.996Z,10.26
2023-03-21T16:53:09.536Z,10.27
2023-03-21T16:55:39.251Z,10.26
2023-03-21T16:58:16.065Z,10.26
2023-03-21T17:00:44.869Z,10.26
2023-03-21T17:03:19.483Z,10.26
2023-03-21T17:05:48.351Z,10.27
2023-03-21T17:08:19.373Z,10.26
2023-03-21T17:10:47.761Z,10.27
2023-03-21T17:13:16.119Z,10.28
2023-03-21T17:15:44.770Z,10.30
2023-03-21T17:18:13.275Z,10.32
2023-03-21T17:20:42.595Z,10.30
2023-03-21T17:23:11.226Z,10.28
2023-03-21T17:25:39.647Z,10.27
2023-03-21T17:28:08.097Z,10.25
2023-03-21T17:30:40.120Z,10.22
2023-03-21T17:33:08.978Z,10.20
2023-03-21T17:35:37.791Z,10.17
2023-03-21T17:38:07.350Z,10.14
2023-03-21T17:40:35.762Z,10.11
2023-03-21T17:43:09.022Z,10.09
2023-03-21T17:45:41.725Z,10.06
2023-03-21T17:48:13.196Z,10.02
2023-03-21T17:50:41.783Z,9.97
2023-03-21T17:53:10.494Z,9.94
2023-03-21T17:55:40.267Z,9.91
2023-03-21T17:58:08.649Z,9.89
2023-03-21T18:00:37.640Z,9.87
2023-03-21T18:03:06.247Z,9.85
2023-03-21T18:05:34.648Z,9.83
2023-03-21T18:08:12.142Z,9.82
2023-03-21T18:10:42.453Z,9.78
2023-03-21T18:13:11.461Z,9.77
2023-03-21T18:15:44.899Z,9.75
2023-03-21T18:18:18.027Z,9.74
2023-03-21T18:20:54.796Z,9.71
2023-03-21T18:23:26.338Z,9.68
2023-03-21T18:25:55.022Z,9.65
2023-03-21T18:28:23.550Z,9.64
2023-03-21T18:31:08.178Z,9.64
2023-03-21T18:33:42.295Z,9.63
2023-03-21T18:36:13.936Z,9.61
2023-03-21T18:38:43.001Z,9.57
2023-03-21T18:41:12.059Z,9.54
2023-03-21T18:46:30.952Z,9.48
2023-03-21T18:49:19.964Z,9.44
2023-03-21T18:51:52.756Z,9.41
2023-03-21T18:54:21.653Z,9.41
2023-03-21T18:59:41.835Z,9.36
2023-03-21T19:02:12.207Z,9.33
2023-03-21T19:04:42.753Z,9.31
2023-03-21T19:07:11.343Z,9.29
2023-03-21T19:10:01.570Z,9.26
2023-03-21T19:12:32.291Z,9.23
2023-03-21T19:15:00.998Z,9.21
2023-03-21T19:20:34.925Z,9.20
2023-03-21T19:23:03.501Z,9.19
2023-03-21T19:25:31.946Z,9.19
2023-03-21T19:28:03.984Z,9.19
2023-03-21T19:30:35.057Z,9.19
2023-03-21T19:33:06.633Z,9.17
2023-03-21T19:35:37.536Z,9.16
2023-03-21T19:38:12.419Z,9.15
2023-03-21T19:40:42.747Z,9.17
2023-03-21T19:43:31.669Z,9.16
2023-03-21T19:46:01.052Z,9.17
2023-03-21T19:48:32.690Z,9.18
2023-03-21T19:53:52.052Z,9.19
2023-03-21T19:56:24.570Z,9.20
2023-03-21T19:58:56.484Z,9.20
2023-03-21T20:01:25.576Z,9.22
2023-03-21T20:03:54.403Z,9.22
2023-03-21T20:06:24.187Z,9.23
2023-03-21T20:11:44.948Z,9.25
2023-03-21T20:14:16.685Z,9.24
2023-03-21T20:16:45.831Z,9.24
2023-03-21T20:19:16.396Z,9.25
2023-03-21T20:21:52.290Z,9.24
2023-03-21T20:24:25.076Z,9.22
2023-03-21T20:26:53.863Z,9.22
2023-03-21T20:32:10.773Z,9.21
2023-03-21T20:34:39.460Z,9.21
2023-03-21T20:37:08.430Z,9.21
2023-03-21T20:39:36.921Z,9.22
2023-03-21T20:42:06.018Z,9.23
2023-03-21T20:44:55.927Z,9.22
2023-03-21T20:47:23.810Z,9.24
2023-03-21T20:49:52.187Z,9.24
2023-03-21T20:55:13.432Z,9.24
2023-03-21T20:58:37.124Z,9.22
2023-03-21T21:01:16.947Z,9.19
2023-03-21T21:03:45.406Z,9.15
2023-03-21T21:06:17.206Z,9.13
2023-03-21T21:08:46.577Z,9.11
2023-03-21T21:12:02.938Z,9.14
2023-03-21T21:14:06.940Z,9.15
2023-03-21T21:16:35.239Z,9.14
2023-03-21T21:19:03.623Z,9.15
2023-03-21T21:21:33.388Z,9.13
2023-03-21T21:24:02.792Z,9.12
2023-03-21T21:26:31.589Z,9.12
2023-03-21T21:29:01.126Z,9.12
2023-03-21T21:31:29.700Z,9.11
2023-03-21T21:33:59.329Z,9.09
2023-03-21T21:36:27.768Z,9.09
2023-03-21T21:38:56.187Z,9.09
2023-03-21T21:41:24.750Z,9.11
2023-03-21T21:43:53.125Z,9.10
2023-03-21T21:46:21.526Z,9.09
2023-03-21T21:48:49.900Z,9.06
2023-03-21T21:51:18.313Z,9.02
2023-03-21T21:53:50.232Z,8.98
2023-03-21T21:56:18.578Z,8.93
2023-03-21T21:58:46.916Z,8.90
2023-03-21T22:01:15.514Z,8.86
2023-03-21T22:03:46.135Z,8.83
2023-03-21T22:06:14.829Z,8.81
2023-03-21T22:08:47.118Z,8.78
2023-03-21T22:11:16.085Z,8.74
2023-03-21T22:13:45.270Z,8.71
2023-03-21T22:16:13.598Z,8.69
2023-03-21T22:18:43.320Z,8.68
2023-03-21T22:21:11.580Z,8.68
2023-03-21T22:23:41.535Z,8.66
2023-03-21T22:26:11.084Z,8.64
2023-03-21T22:28:42.280Z,8.59
2023-03-21T22:31:15.743Z,8.54
2023-03-21T22:33:44.893Z,8.51
2023-03-21T22:36:13.276Z,8.48
2023-03-21T22:38:42.187Z,8.48
2023-03-21T22:41:10.568Z,8.49
2023-03-21T22:43:38.895Z,8.48
2023-03-21T22:46:07.633Z,8.49
2023-03-21T22:48:36.129Z,8.47
2023-03-21T22:51:04.674Z,8.43
2023-03-21T22:53:33.019Z,8.39
2023-03-21T22:56:01.484Z,8.41
2023-03-21T22:58:29.800Z,8.40
2023-03-21T23:01:02.481Z,8.40
2023-03-21T23:03:31.337Z,8.41
2023-03-21T23:06:01.460Z,8.46
2023-03-21T23:08:30.914Z,8.47
2023-03-21T23:10:59.390Z,8.48
2023-03-21T23:13:28.909Z,8.49
2023-03-21T23:16:03.614Z,8.49
2023-03-21T23:18:32.687Z,8.48
2023-03-21T23:21:01.126Z,8.48
2023-03-21T23:23:29.644Z,8.50
2023-03-21T23:25:58.039Z,8.51
2023-03-21T23:28:26.380Z,8.52
2023-03-21T23:30:54.922Z,8.52
2023-03-21T23:33:23.251Z,8.51
2023-03-21T23:35:51.715Z,8.48
2023-03-21T23:38:20.230Z,8.44
2023-03-21T23:40:48.598Z,8.39
2023-03-21T23:43:16.965Z,8.37
2023-03-21T23:45:46.106Z,8.36
2023-03-21T23:48:14.436Z,8.35
2023-03-21T23:50:42.806Z,8.32
2023-03-21T23:53:11.241Z,8.29
2023-03-21T23:55:40.787Z,8.26
2023-03-21T23:58:09.261Z,8.21
